createdAt,value
2018-10-01T00:18:06.615Z,71.23
2018-10-01T00:20:41.687Z,71.29
2018-10-01T00:23:12.403Z,71.35
2018-10-01T00:25:42.437Z,71.25
2018-10-01T00:28:12.801Z,71.13
2018-10-01T00:59:39.289Z,72.07
2018-10-01T01:02:09.286Z,72.10
2018-10-01T01:04:39.167Z,72.13
2018-10-01T01:07:09.479Z,72.20
2018-10-01T01:09:39.608Z,71.77
2018-10-01T01:29:31.453Z,71.78
2018-10-01T01:32:01.206Z,72.23
2018-10-01T01:34:30.920Z,72.08
2018-10-01T01:37:01.826Z,72.43
2018-10-01T01:56:54.201Z,72.43
2018-10-01T01:59:24.462Z,72.26
2018-10-01T02:01:54.208Z,72.58
2018-10-01T02:21:46.183Z,71.78
2018-10-01T02:41:40.237Z,72.29
2018-10-01T02:44:10.379Z,72.02
2018-10-01T02:46:40.062Z,71.88
2018-10-01T02:49:09.780Z,71.97
2018-10-01T02:51:45.016Z,72.09
2018-10-01T03:11:36.378Z,71.82
2018-10-01T03:14:07.432Z,71.81
2018-10-01T03:16:37.469Z,71.97
2018-10-01T03:19:08.120Z,71.87
2018-10-01T03:21:38.856Z,72.23
2018-10-01T03:24:09.349Z,71.68
2018-10-01T03:26:39.077Z,72.43
2018-10-01T03:29:09.004Z,72.50
2018-10-01T03:31:39.311Z,72.30
2018-10-01T03:34:09.279Z,72.52
2018-10-01T03:36:39.167Z,72.35
2018-10-01T03:39:10.502Z,72.35
2018-10-01T03:41:40.700Z,72.30
2018-10-01T03:44:10.879Z,72.66
2018-10-01T03:46:41.102Z,72.56
2018-10-01T03:49:10.861Z,72.87
2018-10-01T03:51:40.641Z,72.80
2018-10-01T03:54:10.791Z,72.47
2018-10-01T03:56:40.780Z,72.16
2018-10-01T03:59:10.640Z,72.60
2018-10-01T04:01:40.456Z,72.29
2018-10-01T04:04:10.376Z,72.69
2018-10-01T04:24:03.589Z,72.26
2018-10-01T04:26:33.085Z,73.06
2018-10-01T04:29:02.981Z,73.20
2018-10-01T05:00:31.625Z,72.27
2018-10-01T05:03:01.593Z,71.92
2018-10-01T05:05:31.407Z,71.27
2018-10-01T05:08:01.542Z,71.30
2018-10-01T05:10:31.447Z,71.25
2018-10-01T05:13:01.171Z,71.37
2018-10-01T05:15:31.184Z,71.42
2018-10-01T05:18:00.940Z,71.12
2018-10-01T05:20:30.743Z,71.38
2018-10-01T05:23:00.538Z,71.79
2018-10-01T05:25:30.252Z,71.91
2018-10-01T05:28:00.177Z,71.96
2018-10-01T05:47:51.055Z,72.21
2018-10-01T05:50:20.977Z,71.95
2018-10-01T05:52:50.810Z,71.88
2018-10-01T06:12:42.608Z,71.52
2018-10-01T06:15:12.723Z,71.62
2018-10-01T06:17:42.668Z,71.66
2018-10-01T06:20:12.518Z,71.85
2018-10-01T06:22:42.449Z,71.53
2018-10-01T06:25:12.455Z,71.71
2018-10-01T06:27:42.182Z,71.71
2018-10-01T06:30:12.038Z,71.51
2018-10-01T06:32:41.970Z,71.24
2018-10-01T06:35:12.256Z,71.06
2018-10-01T06:37:42.125Z,70.25
2018-10-01T06:40:11.989Z,69.99
2018-10-01T06:42:42.219Z,70.09
2018-10-01T06:45:11.974Z,69.86
2018-10-01T06:47:41.762Z,70.01
2018-10-01T06:50:11.974Z,69.50
2018-10-01T07:10:03.613Z,68.62
2018-10-01T07:12:33.286Z,68.71
2018-10-01T07:15:03.248Z,68.61
2018-10-01T07:17:32.786Z,68.32
2018-10-01T07:20:02.871Z,68.08
2018-10-01T07:22:32.573Z,68.27
2018-10-01T07:42:25.242Z,67.68
2018-10-01T07:44:55.123Z,67.15
2018-10-01T07:47:24.834Z,66.90
2018-10-01T07:49:54.772Z,66.35
2018-10-01T07:52:24.673Z,66.87
2018-10-01T08:12:17.810Z,65.04
2018-10-01T08:14:47.813Z,65.65
2018-10-01T08:17:17.694Z,65.31
2018-10-01T08:37:10.779Z,63.74
2018-10-01T08:39:40.739Z,63.93
2018-10-01T08:42:10.683Z,63.29
2018-10-01T08:44:41.055Z,62.76
2018-10-01T08:47:11.033Z,63.07
2018-10-01T08:49:47.173Z,62.80
2018-10-01T08:52:22.994Z,61.43
2018-10-01T08:54:53.002Z,61.61
2018-10-01T08:57:22.708Z,61.63
2018-10-01T08:59:52.640Z,61.21
2018-10-01T09:02:22.612Z,61.10
2018-10-01T09:04:52.672Z,60.31
2018-10-01T09:07:22.582Z,59.96
2018-10-01T09:09:52.482Z,59.91
2018-10-01T09:12:22.410Z,59.54
2018-10-01T09:14:52.291Z,59.73
2018-10-01T09:17:22.802Z,59.78
2018-10-01T09:19:52.713Z,58.49
2018-10-01T09:22:22.801Z,58.49
2018-10-01T09:24:52.972Z,57.55
2018-10-01T09:27:22.658Z,57.92
2018-10-01T09:47:15.291Z,57.89
2018-10-01T09:49:45.047Z,57.73
2018-10-01T09:52:15.137Z,57.49
2018-10-01T09:54:45.001Z,57.53
2018-10-01T09:57:14.673Z,57.47
2018-10-01T09:59:44.464Z,56.34
2018-10-01T10:02:14.564Z,56.27
2018-10-01T10:04:44.254Z,55.66
2018-10-01T10:07:14.178Z,54.85
2018-10-01T10:09:44.098Z,55.86
2018-10-01T10:12:13.899Z,55.84
2018-10-01T10:14:43.724Z,55.05
2018-10-01T10:17:13.643Z,55.01
2018-10-01T10:37:05.817Z,53.68
2018-10-01T10:56:58.160Z,48.95
2018-10-01T10:59:27.867Z,47.79
2018-10-01T11:01:57.638Z,48.19
2018-10-01T11:21:49.910Z,44.34
2018-10-01T11:24:19.840Z,44.82
2018-10-01T11:26:49.726Z,44.11
2018-10-01T11:29:19.744Z,43.15
2018-10-01T11:31:49.703Z,43.42
2018-10-01T11:34:19.067Z,44.08
2018-10-01T11:36:49.096Z,44.44
2018-10-01T11:56:40.406Z,47.38
2018-10-01T11:59:10.235Z,47.76
2018-10-01T12:01:39.777Z,48.18
2018-10-01T12:04:09.686Z,47.84
2018-10-01T12:06:39.775Z,47.87
2018-10-01T12:09:10.949Z,47.44
2018-10-01T12:11:40.987Z,47.76
2018-10-01T12:14:11.368Z,48.59
2018-10-01T12:16:40.995Z,48.17
2018-10-01T12:19:11.561Z,48.23
2018-10-01T12:39:04.867Z,46.79
2018-10-01T12:41:34.456Z,45.28
2018-10-01T12:44:04.195Z,44.03
2018-10-01T12:46:33.577Z,42.86
2018-10-01T12:49:03.914Z,43.03
2018-10-01T12:51:33.411Z,44.13
2018-10-01T12:54:03.329Z,45.49
2018-10-01T12:56:32.983Z,45.18
2018-10-01T12:59:02.536Z,45.80
2018-10-01T13:01:32.066Z,45.22
2018-10-01T13:04:01.942Z,45.47
2018-10-01T13:06:31.510Z,45.36
2018-10-01T13:09:01.171Z,45.22
2018-10-01T13:11:31.325Z,44.97
2018-10-01T13:14:01.125Z,45.01
2018-10-01T13:16:30.830Z,45.37
2018-10-01T13:19:00.813Z,45.96
2018-10-01T13:21:30.658Z,43.34
2018-10-01T13:41:22.570Z,40.20
2018-10-01T14:01:14.380Z,39.15
2018-10-01T14:03:44.398Z,37.30
2018-10-01T14:06:14.102Z,37.11
2018-10-01T14:08:43.891Z,38.31
2018-10-01T14:11:13.943Z,39.67
2018-10-01T14:13:43.593Z,39.66
2018-10-01T14:16:13.672Z,38.25
2018-10-01T14:18:43.709Z,38.37
2018-10-01T14:21:13.419Z,39.62
2018-10-01T14:23:43.233Z,39.27
2018-10-01T14:26:12.815Z,38.30
2018-10-01T14:28:42.725Z,37.83
2018-10-01T14:48:34.527Z,38.55
2018-10-01T14:51:04.529Z,38.44
2018-10-01T15:10:56.082Z,45.44
2018-10-01T15:13:25.830Z,45.87
2018-10-01T15:33:18.761Z,49.99
2018-10-01T15:35:48.337Z,50.67
2018-10-01T15:55:40.275Z,54.08
2018-10-01T15:58:10.060Z,54.34
2018-10-01T16:00:39.700Z,54.76
2018-10-01T16:03:09.647Z,54.43
2018-10-01T16:23:00.846Z,56.37
2018-10-01T16:25:30.929Z,55.91
2018-10-01T17:05:38.919Z,56.63
2018-10-01T17:08:09.460Z,56.19
2018-10-01T17:10:39.093Z,56.32
2018-10-01T17:13:09.754Z,56.62
2018-10-01T17:15:39.410Z,56.73
2018-10-01T17:18:09.234Z,56.56
2018-10-01T17:20:39.738Z,56.28
2018-10-01T17:23:09.137Z,56.75
2018-10-01T17:25:38.778Z,56.40
2018-10-01T17:28:09.325Z,57.18
2018-10-01T17:48:01.555Z,57.55
2018-10-01T17:50:31.975Z,57.62
2018-10-01T18:10:24.559Z,58.85
2018-10-01T18:30:16.886Z,60.12
2018-10-01T18:32:46.320Z,59.47
2018-10-01T18:35:15.801Z,59.88
2018-10-01T18:37:45.955Z,60.58
2018-10-01T18:40:15.533Z,61.30
2018-10-01T18:42:45.243Z,61.44
2018-10-01T18:45:15.248Z,62.14
2018-10-01T18:47:44.896Z,61.74
2018-10-01T18:50:14.623Z,61.87
2018-10-01T18:52:44.334Z,62.45
2018-10-01T18:55:14.099Z,62.48
2018-10-01T19:15:06.358Z,62.11
2018-10-01T19:17:35.782Z,61.62
2018-10-01T19:20:05.423Z,61.41
2018-10-01T19:39:57.658Z,63.33
2018-10-01T19:42:27.246Z,63.31
2018-10-01T19:44:57.107Z,63.30
2018-10-01T19:47:27.239Z,63.26
2018-10-01T19:49:56.786Z,63.63
2018-10-01T19:52:26.389Z,63.60
2018-10-01T19:54:56.369Z,63.76
2018-10-01T20:14:48.812Z,63.16
2018-10-01T20:17:19.019Z,63.16
2018-10-01T20:19:48.580Z,62.87
2018-10-01T20:22:18.227Z,63.37
2018-10-01T20:24:48.456Z,63.78
2018-10-01T20:27:18.808Z,63.94
2018-10-01T20:29:48.253Z,63.94
2018-10-01T20:32:17.809Z,64.35
2018-10-01T20:34:47.636Z,64.63
2018-10-01T20:37:17.296Z,64.25
2018-10-01T20:39:46.998Z,64.85
2018-10-01T20:42:16.863Z,64.56
2018-10-01T20:44:46.641Z,64.17
2018-10-01T20:47:16.404Z,64.36
2018-10-01T20:49:46.083Z,64.47
2018-10-01T20:52:15.628Z,64.87
2018-10-01T20:54:45.569Z,64.75
2018-10-01T20:57:15.501Z,65.40
2018-10-01T20:59:45.227Z,65.42
2018-10-01T21:02:15.075Z,65.41
2018-10-01T21:04:44.818Z,66.01
2018-10-01T21:07:14.534Z,65.98
2018-10-01T21:09:44.287Z,66.38
2018-10-01T21:12:14.131Z,65.78
2018-10-01T21:14:43.790Z,66.00
2018-10-01T21:17:13.790Z,66.13
2018-10-01T21:19:43.509Z,66.50
2018-10-01T21:22:13.173Z,66.47
2018-10-01T21:24:43.165Z,66.49
2018-10-01T21:27:12.742Z,66.64
2018-10-01T21:29:42.466Z,66.56
2018-10-01T21:32:12.244Z,66.26
2018-10-01T21:34:42.065Z,66.64
2018-10-01T21:37:11.884Z,67.04
2018-10-01T21:40:16.604Z,67.10
2018-10-01T21:42:46.538Z,66.69
2018-10-01T21:45:17.305Z,67.05
2018-10-01T21:47:46.831Z,66.87
2018-10-01T21:50:16.296Z,66.82
2018-10-01T21:52:46.002Z,67.36
2018-10-01T21:55:15.490Z,67.24
2018-10-01T21:57:44.988Z,67.22
2018-10-01T22:00:15.260Z,67.98
2018-10-01T22:02:44.855Z,67.90
2018-10-01T22:05:14.514Z,67.96
2018-10-01T22:07:44.426Z,68.58
2018-10-01T22:10:14.032Z,67.86
2018-10-01T22:12:43.577Z,68.50
2018-10-01T22:15:14.445Z,68.04
2018-10-01T22:17:44.340Z,67.51
2018-10-01T22:20:14.146Z,68.02
2018-10-01T22:22:44.075Z,68.56
2018-10-01T22:25:13.667Z,68.40
2018-10-01T22:27:43.223Z,68.28
2018-10-01T22:30:13.204Z,68.58
2018-10-01T22:32:42.899Z,69.09
2018-10-01T22:35:12.407Z,68.34
2018-10-01T22:37:42.356Z,68.12
2018-10-01T22:40:12.123Z,68.15
2018-10-01T22:42:41.726Z,67.94
2018-10-01T22:45:11.382Z,68.50
2018-10-01T22:47:40.652Z,69.36
2018-10-01T22:50:10.191Z,69.23
2018-10-01T22:52:39.716Z,69.67
2018-10-01T22:55:09.320Z,69.58
2018-10-01T22:57:39.206Z,69.65
2018-10-01T23:00:09.449Z,69.45
2018-10-01T23:02:39.038Z,70.40
2018-10-01T23:05:08.894Z,70.10
2018-10-01T23:07:38.802Z,70.28
2018-10-01T23:10:08.757Z,70.05
2018-10-01T23:12:38.364Z,69.57
2018-10-01T23:15:08.539Z,69.19
2018-10-01T23:17:38.150Z,68.98
2018-10-01T23:20:07.829Z,68.97
2018-10-01T23:22:37.649Z,69.37
2018-10-01T23:25:07.434Z,68.95
2018-10-01T23:27:37.267Z,68.76
2018-10-01T23:30:06.898Z,68.83
2018-10-01T23:32:36.375Z,69.06
2018-10-01T23:35:06.693Z,68.98
2018-10-01T23:37:36.448Z,69.26
2018-10-01T23:40:06.070Z,68.94
2018-10-01T23:42:35.610Z,69.22
2018-10-01T23:45:05.392Z,69.26
2018-10-01T23:47:37.294Z,70.29
2018-10-01T23:50:07.112Z,69.89
2018-10-01T23:52:36.714Z,69.58
2018-10-01T23:55:07.101Z,69.77
2018-10-01T23:57:36.751Z,70.31
